sensor_id;sensor_type;location;lat;lon;timestamp;pressure;altitude;pressure_sealevel;temperature;humidity
28167;BME280;15455;53.376;-6.262;2022-12-18T00:02:37;101231.75;;;-1.53;100.00
28167;BME280;15455;53.376;-6.262;2022-12-18T00:05:22;101229.19;;;-1.53;100.00
28167;BME280;15455;53.376;-6.262;2022-12-18T00:08:07;101221.19;;;-1.60;100.00
28167;BME280;15455;53.376;-6.262;2022-12-18T00:10:54;101218.56;;;-1.61;100.00
28167;BME280;15455;53.376;-6.262;2022-12-18T00:13:45;101218.94;;;-1.53;100.00
28167;BME280;15455;53.376;-6.262;2022-12-18T00:16:31;101221.63;;;-1.35;100.00
28167;BME280;15455;53.376;-6.262;2022-12-18T00:19:18;101229.81;;;-1.10;100.00
28167;BME280;15455;53.376;-6.262;2022-12-18T00:22:03;101234.03;;;-0.77;100.00
28167;BME280;15455;53.376;-6.262;2022-12-18T00:24:48;101242.41;;;-0.47;100.00
28167;BME280;15455;53.376;-6.262;2022-12-18T00:27:34;101241.41;;;-0.32;100.00
28167;BME280;15455;53.376;-6.262;2022-12-18T00:30:19;101252.75;;;-0.11;100.00
28167;BME280;15455;53.376;-6.262;2022-12-18T00:33:05;101245.03;;;0.07;100.00
28167;BME280;15455;53.376;-6.262;2022-12-18T00:35:50;101256.94;;;0.23;100.00
28167;BME280;15455;53.376;-6.262;2022-12-18T00:38:36;101246.00;;;0.27;100.00
28167;BME280;15455;53.376;-6.262;2022-12-18T00:41:22;101246.38;;;0.35;100.00
28167;BME280;15455;53.376;-6.262;2022-12-18T00:44:27;101247.44;;;0.40;100.00
28167;BME280;15455;53.376;-6.262;2022-12-18T00:47:12;101240.78;;;0.44;100.00
28167;BME280;15455;53.376;-6.262;2022-12-18T00:49:57;101241.66;;;0.44;100.00
28167;BME280;15455;53.376;-6.262;2022-12-18T00:52:43;101238.63;;;0.53;100.00
28167;BME280;15455;53.376;-6.262;2022-12-18T00:55:28;101236.03;;;0.71;100.00
28167;BME280;15455;53.376;-6.262;2022-12-18T00:58:15;101228.88;;;0.83;100.00
28167;BME280;15455;53.376;-6.262;2022-12-18T01:01:04;101223.34;;;0.94;100.00
28167;BME280;15455;53.376;-6.262;2022-12-18T01:03:52;101226.25;;;1.01;100.00
28167;BME280;15455;53.376;-6.262;2022-12-18T01:06:38;101219.75;;;1.10;100.00
28167;BME280;15455;53.376;-6.262;2022-12-18T01:09:24;101220.72;;;1.12;100.00
28167;BME280;15455;53.376;-6.262;2022-12-18T01:12:10;101216.38;;;1.11;100.00
28167;BME280;15455;53.376;-6.262;2022-12-18T01:14:55;101211.91;;;1.07;100.00
28167;BME280;15455;53.376;-6.262;2022-12-18T01:17:41;101219.47;;;1.03;100.00
28167;BME280;15455;53.376;-6.262;2022-12-18T01:20:27;101217.03;;;1.07;100.00
28167;BME280;15455;53.376;-6.262;2022-12-18T01:23:12;101213.19;;;1.16;100.00
28167;BME280;15455;53.376;-6.262;2022-12-18T01:25:57;101207.75;;;1.30;100.00
28167;BME280;15455;53.376;-6.262;2022-12-18T01:28:43;101206.63;;;1.44;100.00
28167;BME280;15455;53.376;-6.262;2022-12-18T01:31:31;101203.63;;;1.54;100.00
28167;BME280;15455;53.376;-6.262;2022-12-18T01:34:20;101201.47;;;1.64;100.00
28167;BME280;15455;53.376;-6.262;2022-12-18T01:37:05;101198.56;;;1.77;100.00
28167;BME280;15455;53.376;-6.262;2022-12-18T01:39:52;101203.31;;;1.89;100.00
28167;BME280;15455;53.376;-6.262;2022-12-18T01:42:39;101192.34;;;1.93;100.00
28167;BME280;15455;53.376;-6.262;2022-12-18T01:45:27;101184.56;;;1.91;100.00
28167;BME280;15455;53.376;-6.262;2022-12-18T01:48:15;101167.13;;;1.84;100.00
28167;BME280;15455;53.376;-6.262;2022-12-18T01:51:01;101151.56;;;1.81;100.00
28167;BME280;15455;53.376;-6.262;2022-12-18T01:53:48;101145.16;;;1.71;100.00
28167;BME280;15455;53.376;-6.262;2022-12-18T01:56:34;101143.09;;;1.63;100.00
28167;BME280;15455;53.376;-6.262;2022-12-18T01:59:20;101141.72;;;1.50;100.00
28167;BME280;15455;53.376;-6.262;2022-12-18T02:02:06;101140.34;;;1.37;100.00
28167;BME280;15455;53.376;-6.262;2022-12-18T02:04:52;101120.94;;;1.24;100.00
28167;BME280;15455;53.376;-6.262;2022-12-18T02:10:46;101100.69;;;1.11;100.00
28167;BME280;15455;53.376;-6.262;2022-12-18T02:14:03;101099.72;;;1.07;100.00
28167;BME280;15455;53.376;-6.262;2022-12-18T02:16:58;101100.69;;;1.11;100.00
28167;BME280;15455;53.376;-6.262;2022-12-18T02:28:54;101119.31;;;1.47;100.00
28167;BME280;15455;53.376;-6.262;2022-12-18T02:31:49;101118.84;;;1.56;100.00
28167;BME280;15455;53.376;-6.262;2022-12-18T02:34:39;101105.63;;;1.69;100.00
28167;BME280;15455;53.376;-6.262;2022-12-18T02:37:32;101105.88;;;1.76;100.00
28167;BME280;15455;53.376;-6.262;2022-12-18T02:40:22;101092.75;;;1.92;100.00
28167;BME280;15455;53.376;-6.262;2022-12-18T02:43:12;101095.81;;;2.04;100.00
28167;BME280;15455;53.376;-6.262;2022-12-18T02:46:00;101100.66;;;2.19;100.00
28167;BME280;15455;53.376;-6.262;2022-12-18T02:49:16;101102.88;;;2.33;100.00
28167;BME280;15455;53.376;-6.262;2022-12-18T02:58:49;101082.88;;;2.74;100.00
28167;BME280;15455;53.376;-6.262;2022-12-18T03:08:18;101067.13;;;3.18;100.00
28167;BME280;15455;53.376;-6.262;2022-12-18T03:11:11;101051.03;;;3.25;100.00
28167;BME280;15455;53.376;-6.262;2022-12-18T03:13:58;101031.53;;;3.33;100.00
28167;BME280;15455;53.376;-6.262;2022-12-18T03:16:45;101028.28;;;3.39;100.00
28167;BME280;15455;53.376;-6.262;2022-12-18T03:19:33;101023.97;;;3.39;100.00
28167;BME280;15455;53.376;-6.262;2022-12-18T03:22:23;101000.13;;;3.46;100.00
28167;BME280;15455;53.376;-6.262;2022-12-18T03:25:13;100989.03;;;3.49;100.00
28167;BME280;15455;53.376;-6.262;2022-12-18T03:28:01;100983.81;;;3.47;100.00
28167;BME280;15455;53.376;-6.262;2022-12-18T03:30:53;100975.22;;;3.47;100.00
28167;BME280;15455;53.376;-6.262;2022-12-18T03:33:56;100954.56;;;3.47;100.00
28167;BME280;15455;53.376;-6.262;2022-12-18T03:36:51;100947.59;;;3.44;100.00
28167;BME280;15455;53.376;-6.262;2022-12-18T03:39:36;100935.66;;;3.48;100.00
28167;BME280;15455;53.376;-6.262;2022-12-18T03:45:27;100931.56;;;3.55;100.00
28167;BME280;15455;53.376;-6.262;2022-12-18T03:48:54;100923.91;;;3.58;100.00
28167;BME280;15455;53.376;-6.262;2022-12-18T03:51:49;100913.59;;;3.58;100.00
28167;BME280;15455;53.376;-6.262;2022-12-18T03:54:38;100917.91;;;3.59;100.00
28167;BME280;15455;53.376;-6.262;2022-12-18T03:57:32;100919.81;;;3.64;100.00
28167;BME280;15455;53.376;-6.262;2022-12-18T04:00:19;100916.53;;;3.70;100.00
28167;BME280;15455;53.376;-6.262;2022-12-18T04:03:17;100904.53;;;3.72;100.00
28167;BME280;15455;53.376;-6.262;2022-12-18T04:06:10;100883.13;;;3.76;100.00
28167;BME280;15455;53.376;-6.262;2022-12-18T04:08:58;100875.50;;;3.81;100.00
28167;BME280;15455;53.376;-6.262;2022-12-18T04:11:46;100880.75;;;3.84;100.00
28167;BME280;15455;53.376;-6.262;2022-12-18T04:14:33;100880.72;;;3.82;100.00
28167;BME280;15455;53.376;-6.262;2022-12-18T04:17:24;100883.38;;;3.86;100.00
28167;BME280;15455;53.376;-6.262;2022-12-18T04:20:10;100888.66;;;3.89;100.00
28167;BME280;15455;53.376;-6.262;2022-12-18T04:22:59;100886.09;;;3.90;100.00
28167;BME280;15455;53.376;-6.262;2022-12-18T04:25:46;100867.28;;;3.94;100.00
28167;BME280;15455;53.376;-6.262;2022-12-18T04:28:40;100872.59;;;4.00;100.00
28167;BME280;15455;53.376;-6.262;2022-12-18T04:31:27;100858.94;;;4.05;100.00
28167;BME280;15455;53.376;-6.262;2022-12-18T04:34:13;100844.34;;;4.07;100.00
28167;BME280;15455;53.376;-6.262;2022-12-18T04:37:05;100836.66;;;4.10;100.00
28167;BME280;15455;53.376;-6.262;2022-12-18T04:39:51;100835.84;;;4.11;100.00
28167;BME280;15455;53.376;-6.262;2022-12-18T04:42:47;100836.84;;;4.16;100.00
28167;BME280;15455;53.376;-6.262;2022-12-18T04:45:32;100842.84;;;4.15;100.00
28167;BME280;15455;53.376;-6.262;2022-12-18T04:48:18;100842.91;;;4.18;100.00
28167;BME280;15455;53.376;-6.262;2022-12-18T04:51:05;100832.63;;;4.20;100.00
28167;BME280;15455;53.376;-6.262;2022-12-18T04:53:52;100832.72;;;4.24;100.00
28167;BME280;15455;53.376;-6.262;2022-12-18T04:56:37;100819.91;;;4.29;100.00
28167;BME280;15455;53.376;-6.262;2022-12-18T04:59:23;100809.69;;;4.32;100.00
28167;BME280;15455;53.376;-6.262;2022-12-18T05:02:09;100820.91;;;4.34;100.00
28167;BME280;15455;53.376;-6.262;2022-12-18T05:04:54;100814.09;;;4.38;100.00
28167;BME280;15455;53.376;-6.262;2022-12-18T05:07:40;100808.97;;;4.39;100.00
28167;BME280;15455;53.376;-6.262;2022-12-18T05:10:26;100810.81;;;4.45;100.00
28167;BME280;15455;53.376;-6.262;2022-12-18T05:13:12;100799.66;;;4.46;100.00
28167;BME280;15455;53.376;-6.262;2022-12-18T05:15:58;100791.94;;;4.47;100.00
28167;BME280;15455;53.376;-6.262;2022-12-18T05:18:44;100777.34;;;4.49;100.00
28167;BME280;15455;53.376;-6.262;2022-12-18T05:21:29;100765.28;;;4.50;100.00
28167;BME280;15455;53.376;-6.262;2022-12-18T05:24:15;100755.78;;;4.49;100.00
28167;BME280;15455;53.376;-6.262;2022-12-18T05:27:00;100754.06;;;4.48;100.00
28167;BME280;15455;53.376;-6.262;2022-12-18T05:29:46;100744.63;;;4.50;100.00
28167;BME280;15455;53.376;-6.262;2022-12-18T05:32:31;100736.00;;;4.49;100.00
28167;BME280;15455;53.376;-6.262;2022-12-18T05:35:17;100734.31;;;4.51;100.00
28167;BME280;15455;53.376;-6.262;2022-12-18T05:38:02;100705.00;;;4.49;100.00
28167;BME280;15455;53.376;-6.262;2022-12-18T05:40:49;100701.47;;;4.47;100.00
28167;BME280;15455;53.376;-6.262;2022-12-18T05:43:36;100709.22;;;4.47;100.00
28167;BME280;15455;53.376;-6.262;2022-12-18T05:46:23;100698.00;;;4.45;100.00
28167;BME280;15455;53.376;-6.262;2022-12-18T05:49:09;100684.25;;;4.46;100.00
28167;BME280;15455;53.376;-6.262;2022-12-18T05:51:55;100687.66;;;4.45;100.00
28167;BME280;15455;53.376;-6.262;2022-12-18T05:54:40;100682.50;;;4.45;100.00
28167;BME280;15455;53.376;-6.262;2022-12-18T05:57:26;100697.16;;;4.46;100.00
28167;BME280;15455;53.376;-6.262;2022-12-18T06:00:12;100684.19;;;4.45;100.00
28167;BME280;15455;53.376;-6.262;2022-12-18T06:02:58;100680.75;;;4.44;100.00
28167;BME280;15455;53.376;-6.262;2022-12-18T06:05:45;100703.13;;;4.44;100.00
28167;BME280;15455;53.376;-6.262;2022-12-18T06:08:30;100702.19;;;4.40;100.00
28167;BME280;15455;53.376;-6.262;2022-12-18T06:11:18;100688.38;;;4.38;100.00
28167;BME280;15455;53.376;-6.262;2022-12-18T06:14:05;100684.91;;;4.38;100.00
28167;BME280;15455;53.376;-6.262;2022-12-18T06:16:51;100676.28;;;4.37;100.00
28167;BME280;15455;53.376;-6.262;2022-12-18T06:19:37;100663.34;;;4.35;100.00
28167;BME280;15455;53.376;-6.262;2022-12-18T06:22:23;100655.56;;;4.34;100.00
28167;BME280;15455;53.376;-6.262;2022-12-18T06:25:09;100657.31;;;4.35;100.00
28167;BME280;15455;53.376;-6.262;2022-12-18T06:27:54;100659.91;;;4.37;100.00
28167;BME280;15455;53.376;-6.262;2022-12-18T06:30:39;100645.22;;;4.34;100.00
28167;BME280;15455;53.376;-6.262;2022-12-18T06:33:26;100639.22;;;4.35;100.00
28167;BME280;15455;53.376;-6.262;2022-12-18T06:36:13;100637.50;;;4.35;100.00
28167;BME280;15455;53.376;-6.262;2022-12-18T06:38:59;100630.59;;;4.36;100.00
28167;BME280;15455;53.376;-6.262;2022-12-18T06:41:44;100624.50;;;4.31;100.00
28167;BME280;15455;53.376;-6.262;2022-12-18T06:44:30;100602.00;;;4.27;100.00
28167;BME280;15455;53.376;-6.262;2022-12-18T06:47:16;100580.34;;;4.20;100.00
28167;BME280;15455;53.376;-6.262;2022-12-18T06:50:02;100586.31;;;4.16;100.00
28167;BME280;15455;53.376;-6.262;2022-12-18T06:52:47;100582.72;;;4.09;100.00
28167;BME280;15455;53.376;-6.262;2022-12-18T06:55:33;100585.22;;;4.06;100.00
28167;BME280;15455;53.376;-6.262;2022-12-18T06:58:18;100584.28;;;4.03;100.00
28167;BME280;15455;53.376;-6.262;2022-12-18T07:01:06;100560.09;;;3.97;100.00
28167;BME280;15455;53.376;-6.262;2022-12-18T07:03:54;100553.06;;;3.92;100.00
28167;BME280;15455;53.376;-6.262;2022-12-18T07:06:40;100546.94;;;3.87;100.00
28167;BME280;15455;53.376;-6.262;2022-12-18T07:09:26;100549.47;;;3.85;100.00
28167;BME280;15455;53.376;-6.262;2022-12-18T07:12:14;100536.47;;;3.80;100.00
28167;BME280;15455;53.376;-6.262;2022-12-18T07:14:59;100526.09;;;3.77;100.00
28167;BME280;15455;53.376;-6.262;2022-12-18T07:17:44;100526.84;;;3.73;100.00
28167;BME280;15455;53.376;-6.262;2022-12-18T07:20:30;100522.53;;;3.72;100.00
28167;BME280;15455;53.376;-6.262;2022-12-18T07:23:15;100516.47;;;3.70;100.00
28167;BME280;15455;53.376;-6.262;2022-12-18T07:26:03;100502.66;;;3.70;100.00
28167;BME280;15455;53.376;-6.262;2022-12-18T07:28:49;100495.84;;;3.72;100.00
28167;BME280;15455;53.376;-6.262;2022-12-18T07:31:35;100483.81;;;3.72;100.00
28167;BME280;15455;53.376;-6.262;2022-12-18T07:34:21;100471.78;;;3.73;100.00
28167;BME280;15455;53.376;-6.262;2022-12-18T07:37:07;100470.97;;;3.75;100.00
28167;BME280;15455;53.376;-6.262;2022-12-18T07:39:52;100469.38;;;3.80;100.00
28167;BME280;15455;53.376;-6.262;2022-12-18T07:42:37;100478.94;;;3.86;100.00
28167;BME280;15455;53.376;-6.262;2022-12-18T07:45:23;100449.91;;;3.98;100.00
28167;BME280;15455;53.376;-6.262;2022-12-18T07:48:08;100433.69;;;4.05;100.00
28167;BME280;15455;53.376;-6.262;2022-12-18T07:51:00;100425.94;;;4.05;100.00
28167;BME280;15455;53.376;-6.262;2022-12-18T07:53:47;100407.88;;;4.05;100.00
28167;BME280;15455;53.376;-6.262;2022-12-18T07:56:36;100401.94;;;4.09;100.00
28167;BME280;15455;53.376;-6.262;2022-12-18T07:59:21;100396.78;;;4.11;100.00
28167;BME280;15455;53.376;-6.262;2022-12-18T08:02:07;100374.41;;;4.11;100.00
28167;BME280;15455;53.376;-6.262;2022-12-18T08:04:52;100377.00;;;4.13;100.00
28167;BME280;15455;53.376;-6.262;2022-12-18T08:07:39;100371.88;;;4.14;100.00
28167;BME280;15455;53.376;-6.262;2022-12-18T08:10:25;100384.00;;;4.18;100.00
28167;BME280;15455;53.376;-6.262;2022-12-18T08:13:10;100358.13;;;4.15;100.00
28167;BME280;15455;53.376;-6.262;2022-12-18T08:16:00;100352.91;;;4.12;100.00
28167;BME280;15455;53.376;-6.262;2022-12-18T08:18:46;100354.69;;;4.15;100.00
28167;BME280;15455;53.376;-6.262;2022-12-18T08:21:32;100355.56;;;4.17;100.00
28167;BME280;15455;53.376;-6.262;2022-12-18T08:24:17;100359.84;;;4.15;100.00
28167;BME280;15455;53.376;-6.262;2022-12-18T08:27:03;100351.19;;;4.13;100.00
28167;BME280;15455;53.376;-6.262;2022-12-18T08:30:08;100348.56;;;4.10;100.00
28167;BME280;15455;53.376;-6.262;2022-12-18T08:32:54;100345.09;;;4.08;100.00
28167;BME280;15455;53.376;-6.262;2022-12-18T08:35:39;100334.78;;;4.09;100.00
28167;BME280;15455;53.376;-6.262;2022-12-18T08:38:31;100328.78;;;4.10;100.00
28167;BME280;15455;53.376;-6.262;2022-12-18T08:41:18;100321.88;;;4.09;100.00
28167;BME280;15455;53.376;-6.262;2022-12-18T08:44:03;100313.22;;;4.07;100.00
28167;BME280;15455;53.376;-6.262;2022-12-18T08:47:07;100315.00;;;4.10;100.00
28167;BME280;15455;53.376;-6.262;2022-12-18T08:49:53;100321.03;;;4.09;100.00
28167;BME280;15455;53.376;-6.262;2022-12-18T08:52:39;100321.88;;;4.09;100.00
28167;BME280;15455;53.376;-6.262;2022-12-18T08:55:24;100312.44;;;4.11;100.00
28167;BME280;15455;53.376;-6.262;2022-12-18T08:58:10;100309.00;;;4.12;100.00
28167;BME280;15455;53.376;-6.262;2022-12-18T09:01:06;100306.47;;;4.15;100.00
28167;BME280;15455;53.376;-6.262;2022-12-18T09:03:52;100310.00;;;4.19;100.00
28167;BME280;15455;53.376;-6.262;2022-12-18T09:06:37;100323.78;;;4.21;100.00
28167;BME280;15455;53.376;-6.262;2022-12-18T09:09:24;100333.31;;;4.24;100.00
28167;BME280;15455;53.376;-6.262;2022-12-18T09:12:09;100309.16;;;4.23;100.00
28167;BME280;15455;53.376;-6.262;2022-12-18T09:14:55;100321.25;;;4.24;100.00
28167;BME280;15455;53.376;-6.262;2022-12-18T09:17:41;100315.28;;;4.27;100.00
28167;BME280;15455;53.376;-6.262;2022-12-18T09:20:26;100311.84;;;4.26;100.00
28167;BME280;15455;53.376;-6.262;2022-12-18T09:23:14;100313.56;;;4.27;100.00
28167;BME280;15455;53.376;-6.262;2022-12-18T09:26:00;100301.53;;;4.28;100.00
28167;BME280;15455;53.376;-6.262;2022-12-18T09:28:45;100290.31;;;4.29;100.00
28167;BME280;15455;53.376;-6.262;2022-12-18T09:31:31;100279.16;;;4.30;100.00
28167;BME280;15455;53.376;-6.262;2022-12-18T09:34:16;100263.66;;;4.30;100.00
28167;BME280;15455;53.376;-6.262;2022-12-18T09:37:02;100241.25;;;4.29;100.00
28167;BME280;15455;53.376;-6.262;2022-12-18T09:39:47;100248.16;;;4.30;100.00
28167;BME280;15455;53.376;-6.262;2022-12-18T09:42:33;100236.16;;;4.32;100.00
28167;BME280;15455;53.376;-6.262;2022-12-18T09:45:19;100232.72;;;4.34;100.00
28167;BME280;15455;53.376;-6.262;2022-12-18T09:48:05;100243.06;;;4.36;100.00
28167;BME280;15455;53.376;-6.262;2022-12-18T09:51:00;100231.91;;;4.39;100.00
28167;BME280;15455;53.376;-6.262;2022-12-18T09:53:51;100230.25;;;4.41;100.00
28167;BME280;15455;53.376;-6.262;2022-12-18T09:56:41;100232.84;;;4.42;100.00
28167;BME280;15455;53.376;-6.262;2022-12-18T09:59:34;100231.13;;;4.43;100.00
28167;BME280;15455;53.376;-6.262;2022-12-18T10:02:23;100219.06;;;4.45;100.00
28167;BME280;15455;53.376;-6.262;2022-12-18T10:05:17;100221.72;;;4.48;100.00
28167;BME280;15455;53.376;-6.262;2022-12-18T10:14:35;100218.28;;;4.50;100.00
28167;BME280;15455;53.376;-6.262;2022-12-18T10:17:33;100212.28;;;4.50;100.00
28167;BME280;15455;53.376;-6.262;2022-12-18T10:20:39;100226.94;;;4.51;100.00
28167;BME280;15455;53.376;-6.262;2022-12-18T10:27:14;100186.47;;;4.53;100.00
28167;BME280;15455;53.376;-6.262;2022-12-18T10:30:04;100182.22;;;4.55;100.00
28167;BME280;15455;53.376;-6.262;2022-12-18T10:33:01;100170.16;;;4.57;100.00
28167;BME280;15455;53.376;-6.262;2022-12-18T10:35:48;100183.94;;;4.59;100.00
28167;BME280;15455;53.376;-6.262;2022-12-18T10:38:37;100178.84;;;4.62;100.00
28167;BME280;15455;53.376;-6.262;2022-12-18T10:41:25;100160.81;;;4.67;100.00
28167;BME280;15455;53.376;-6.262;2022-12-18T10:44:18;100150.53;;;4.73;100.00
28167;BME280;15455;53.376;-6.262;2022-12-18T10:47:09;100168.66;;;4.76;100.00
28167;BME280;15455;53.376;-6.262;2022-12-18T10:49:56;100170.41;;;4.79;100.00
28167;BME280;15455;53.376;-6.262;2022-12-18T10:52:42;100169.59;;;4.81;100.00
28167;BME280;15455;53.376;-6.262;2022-12-18T10:55:33;100150.69;;;4.85;100.00
28167;BME280;15455;53.376;-6.262;2022-12-18T10:58:30;100153.31;;;4.89;100.00
28167;BME280;15455;53.376;-6.262;2022-12-18T11:01:18;100150.72;;;4.89;100.00
28167;BME280;15455;53.376;-6.262;2022-12-18T11:04:08;100147.31;;;4.91;100.00
28167;BME280;15455;53.376;-6.262;2022-12-18T11:07:02;100135.25;;;4.95;100.00
28167;BME280;15455;53.376;-6.262;2022-12-18T11:10:00;100130.13;;;4.98;100.00
28167;BME280;15455;53.376;-6.262;2022-12-18T11:12:46;100125.84;;;5.01;100.00
28167;BME280;15455;53.376;-6.262;2022-12-18T11:15:33;100100.88;;;5.05;100.00
28167;BME280;15455;53.376;-6.262;2022-12-18T11:18:30;100087.09;;;5.06;100.00
28167;BME280;15455;53.376;-6.262;2022-12-18T11:21:17;100083.69;;;5.10;100.00
28167;BME280;15455;53.376;-6.262;2022-12-18T11:24:03;100078.56;;;5.15;100.00
28167;BME280;15455;53.376;-6.262;2022-12-18T11:26:48;100069.09;;;5.18;100.00
28167;BME280;15455;53.376;-6.262;2022-12-18T11:29:42;100064.84;;;5.24;100.00
28167;BME280;15455;53.376;-6.262;2022-12-18T11:32:37;100054.50;;;5.27;100.00
28167;BME280;15455;53.376;-6.262;2022-12-18T11:38:28;100044.19;;;5.33;100.00
28167;BME280;15455;53.376;-6.262;2022-12-18T11:41:28;100039.09;;;5.37;100.00
28167;BME280;15455;53.376;-6.262;2022-12-18T11:44:59;100022.72;;;5.43;100.00
28167;BME280;15455;53.376;-6.262;2022-12-18T11:47:55;100015.84;;;5.45;100.00
28167;BME280;15455;53.376;-6.262;2022-12-18T11:50:51;100021.88;;;5.49;100.00
28167;BME280;15455;53.376;-6.262;2022-12-18T11:53:37;100019.34;;;5.55;100.00
28167;BME280;15455;53.376;-6.262;2022-12-18T11:56:36;100011.59;;;5.56;100.00
28167;BME280;15455;53.376;-6.262;2022-12-18T12:11:10;99976.31;;;5.76;100.00
28167;BME280;15455;53.376;-6.262;2022-12-18T12:17:18;99950.44;;;5.86;100.00
28167;BME280;15455;53.376;-6.262;2022-12-18T12:32:25;99901.38;;;6.19;100.00
28167;BME280;15455;53.376;-6.262;2022-12-18T12:38:29;99880.66;;;6.28;100.00
28167;BME280;15455;53.376;-6.262;2022-12-18T12:41:19;99871.16;;;6.36;100.00
28167;BME280;15455;53.376;-6.262;2022-12-18T12:44:29;99855.59;;;6.44;100.00
28167;BME280;15455;53.376;-6.262;2022-12-18T12:47:21;99847.84;;;6.49;100.00
28167;BME280;15455;53.376;-6.262;2022-12-18T12:50:15;99830.53;;;6.55;100.00
28167;BME280;15455;53.376;-6.262;2022-12-18T12:53:06;99821.88;;;6.66;100.00
28167;BME280;15455;53.376;-6.262;2022-12-18T12:55:55;99809.78;;;6.71;100.00
28167;BME280;15455;53.376;-6.262;2022-12-18T13:02:12;99807.16;;;6.82;100.00
28167;BME280;15455;53.376;-6.262;2022-12-18T13:05:14;99795.91;;;6.93;100.00
28167;BME280;15455;53.376;-6.262;2022-12-18T13:08:05;99777.72;;;6.98;100.00
28167;BME280;15455;53.376;-6.262;2022-12-18T13:10:53;99779.44;;;7.02;100.00
28167;BME280;15455;53.376;-6.262;2022-12-18T13:14:26;99775.97;;;7.11;100.00
28167;BME280;15455;53.376;-6.262;2022-12-18T13:20:11;99756.84;;;7.24;100.00
28167;BME280;15455;53.376;-6.262;2022-12-18T13:23:01;99754.22;;;7.29;100.00
28167;BME280;15455;53.376;-6.262;2022-12-18T13:28:52;99748.16;;;7.35;100.00
28167;BME280;15455;53.376;-6.262;2022-12-18T13:34:28;99727.34;;;7.39;100.00
28167;BME280;15455;53.376;-6.262;2022-12-18T13:40:53;99707.41;;;7.47;100.00
28167;BME280;15455;53.376;-6.262;2022-12-18T13:43:50;99705.66;;;7.51;100.00
28167;BME280;15455;53.376;-6.262;2022-12-18T13:46:47;99703.88;;;7.56;100.00
28167;BME280;15455;53.376;-6.262;2022-12-18T13:49:41;99700.41;;;7.60;100.00
28167;BME280;15455;53.376;-6.262;2022-12-18T13:52:34;99702.94;;;7.67;100.00
28167;BME280;15455;53.376;-6.262;2022-12-18T13:55:22;99698.59;;;7.72;100.00
28167;BME280;15455;53.376;-6.262;2022-12-18T13:58:11;99692.50;;;7.71;100.00
28167;BME280;15455;53.376;-6.262;2022-12-18T14:00:57;99699.44;;;7.72;100.00
28167;BME280;15455;53.376;-6.262;2022-12-18T14:03:44;99673.44;;;7.74;100.00
28167;BME280;15455;53.376;-6.262;2022-12-18T14:06:32;99664.78;;;7.76;100.00
28167;BME280;15455;53.376;-6.262;2022-12-18T14:09:27;99662.13;;;7.81;100.00
28167;BME280;15455;53.376;-6.262;2022-12-18T14:12:33;99648.28;;;7.82;100.00
28167;BME280;15455;53.376;-6.262;2022-12-18T14:15:41;99637.03;;;7.83;100.00
28167;BME280;15455;53.376;-6.262;2022-12-18T14:18:54;99637.88;;;7.83;100.00
28167;BME280;15455;53.376;-6.262;2022-12-18T14:21:51;99631.84;;;7.83;100.00
28167;BME280;15455;53.376;-6.262;2022-12-18T14:24:36;99643.06;;;7.83;100.00
28167;BME280;15455;53.376;-6.262;2022-12-18T14:27:25;99641.31;;;7.84;100.00
28167;BME280;15455;53.376;-6.262;2022-12-18T14:33:20;99657.78;;;7.86;100.00
28167;BME280;15455;53.376;-6.262;2022-12-18T14:36:16;99644.78;;;7.88;100.00
28167;BME280;15455;53.376;-6.262;2022-12-18T14:39:02;99639.53;;;7.92;100.00
28167;BME280;15455;53.376;-6.262;2022-12-18T14:41:51;99636.03;;;7.96;100.00
28167;BME280;15455;53.376;-6.262;2022-12-18T14:44:37;99612.66;;;7.95;100.00
28167;BME280;15455;53.376;-6.262;2022-12-18T14:47:43;99598.81;;;7.96;100.00
28167;BME280;15455;53.376;-6.262;2022-12-18T14:50:29;99592.69;;;7.98;100.00
28167;BME280;15455;53.376;-6.262;2022-12-18T14:53:34;99585.78;;;7.99;100.00
28167;BME280;15455;53.376;-6.262;2022-12-18T14:56:29;99584.00;;;8.01;100.00
28167;BME280;15455;53.376;-6.262;2022-12-18T14:59:18;99583.94;;;8.06;100.00
28167;BME280;15455;53.376;-6.262;2022-12-18T15:02:22;99577.91;;;8.05;100.00
28167;BME280;15455;53.376;-6.262;2022-12-18T15:05:29;99573.56;;;8.04;100.00
28167;BME280;15455;53.376;-6.262;2022-12-18T15:08:36;99570.13;;;8.04;100.00
28167;BME280;15455;53.376;-6.262;2022-12-18T15:11:32;99561.47;;;8.02;100.00
28167;BME280;15455;53.376;-6.262;2022-12-18T15:14:32;99571.88;;;8.03;100.00
28167;BME280;15455;53.376;-6.262;2022-12-18T15:17:21;99572.72;;;8.05;100.00
28167;BME280;15455;53.376;-6.262;2022-12-18T15:20:10;99558.84;;;8.06;100.00
28167;BME280;15455;53.376;-6.262;2022-12-18T15:22:56;99557.13;;;8.05;100.00
28167;BME280;15455;53.376;-6.262;2022-12-18T15:25:41;99567.50;;;8.07;100.00
28167;BME280;15455;53.376;-6.262;2022-12-18T15:28:38;99558.81;;;8.08;100.00
28167;BME280;15455;53.376;-6.262;2022-12-18T15:31:31;99562.25;;;8.10;100.00
28167;BME280;15455;53.376;-6.262;2022-12-18T15:34:20;99558.78;;;8.11;100.00
28167;BME280;15455;53.376;-6.262;2022-12-18T15:37:07;99565.69;;;8.15;100.00
28167;BME280;15455;53.376;-6.262;2022-12-18T15:39:53;99554.38;;;8.16;100.00
28167;BME280;15455;53.376;-6.262;2022-12-18T15:42:38;99549.19;;;8.16;100.00
28167;BME280;15455;53.376;-6.262;2022-12-18T15:45:42;99545.72;;;8.17;100.00
28167;BME280;15455;53.376;-6.262;2022-12-18T15:48:28;99544.88;;;8.16;100.00
28167;BME280;15455;53.376;-6.262;2022-12-18T15:51:21;99544.81;;;8.20;100.00
28167;BME280;15455;53.376;-6.262;2022-12-18T15:54:11;99533.53;;;8.22;100.00
28167;BME280;15455;53.376;-6.262;2022-12-18T15:56:58;99538.69;;;8.25;100.00
28167;BME280;15455;53.376;-6.262;2022-12-18T16:00:03;99538.66;;;8.27;100.00
28167;BME280;15455;53.376;-6.262;2022-12-18T16:02:48;99523.94;;;8.26;100.00
28167;BME280;15455;53.376;-6.262;2022-12-18T16:05:34;99518.78;;;8.23;100.00
28167;BME280;15455;53.376;-6.262;2022-12-18T16:08:20;99510.16;;;8.21;100.00
28167;BME280;15455;53.376;-6.262;2022-12-18T16:11:15;99498.88;;;8.22;100.00